Millenium Air

Millenium Air Since 1998



 METAR AND TAF INFORMATION
METAR FOR LYBE
ADDS - METARS form results

(2114 UTC 22 October 2020)
Data provider http://aviationweather.gov/metar/data/
 
METAR text: LYBE 222100Z 00000KT 8000 NSC 11/08 Q1022 NOSIG
Conditions at: LYBE (BELGRADE/SURCIN , CS) observed 2100 UTC 22 October 2020
Temperature: 11.0°C (52°F)
Dewpoint: 8.0°C (46°F) [RH = 82%]
Pressure (altimeter): 30.18 inches Hg (1022.0 mb)
Winds: calm
Visibility: 5 miles ( 8 km)
Ceiling: at least 12,000 feet AGL
Clouds: sky clear below 12,000 feet AGL
Weather: no significant weather observed at this time

METAR text: LYBE 222030Z 00000KT 7000 NSC 11/07 Q1022 NOSIG
Conditions at: LYBE (BELGRADE/SURCIN , CS) observed 2030 UTC 22 October 2020
Temperature: 11.0°C (52°F)
Dewpoint: 7.0°C (45°F) [RH = 76%]
Pressure (altimeter): 30.18 inches Hg (1022.0 mb)
Winds: calm
Visibility: 4 miles ( 7 km)
Ceiling: at least 12,000 feet AGL
Clouds: sky clear below 12,000 feet AGL
Weather: no significant weather observed at this time

Forecast for: LYBE (BELGRADE/SURCIN , CS)
Text: TAF LYBE 221700Z 2218/2318 18005KT CAVOK TX24/2313Z TN06/2304Z
Forecast period: 1800 UTC 22 October 2020 to 0100 UTC 23 October 2020
Forecast type: FROM: standard forecast or significant change
Winds: from the S (180 degrees) at 6 MPH (5 knots; 2.6 m/s)
Visibility: 6 or more miles (10+ km)
Ceiling: unknown
Clouds: missing
Weather: no significant weather forecast for this period
Text: BECMG 2301/2303 3000 BR
Forecast period: 0100 to 0600 UTC 23 October 2020
Forecast type: BECOMING: Conditions expected to become as follows by 0300 UTC 23 October 2020
Winds: from the S (180 degrees) at 6 MPH (5 knots; 2.6 m/s)
Visibility: 1.86 miles (2.99 km)
Ceiling: unknown
Clouds: missing
Weather: BR  (mist)
Text: TEMPO 2303/2305 0800 FG
Forecast period: 0300 to 0500 UTC 23 October 2020
Forecast type: TEMPORARY: The following changes expected for less than half the time period
Visibility: 0.50 miles (0.80 km)
Ceiling: unknown
Clouds: missing
Weather: FG  (fog)
Text: BECMG 2306/2308 8000 NSW
Forecast period: 0600 to 1800 UTC 23 October 2020
Forecast type: BECOMING: Conditions expected to become as follows by 0800 UTC 23 October 2020
Winds: from the S (180 degrees) at 6 MPH (5 knots; 2.6 m/s)
Visibility: 5 miles (8 km)
Ceiling: unknown
Clouds: missing
Weather: NSW  (no significant weather)

 AIRPORT MAP

 RUNWAY INFORMATION
Runway 12 Runway length 11155 ft Runway width 148 ft
Runway elevation 318 ft Runway displaced threshold 0 ft Runway heading 122
Runway 30 Runway length 11155 ft Runway width 148 ft
Runway elevation 335 ft Runway displaced threshold 1312 ft Runway heading 302

 AIRPORT FREQUENCIES
Type APP Name APP Frequency 119.1 MHZ
Type ATIS Name INFO Frequency 122.925 MHZ
Type TWR Name TWR Frequency 118.1 MHZ

 AIRPORT NEAR NAVIGATION AIDS
Type VOR-DME Name Beograd Frequency 112300 KHZ
Type NDB Name Beograd Frequency 316 KHZ
Type NDB Name Beograd Frequency 380 KHZ
Type NDB Name Beograd Frequency 355 KHZ